createdAt,value
2022-08-11T00:01:55.932Z,3.25
2022-08-11T00:04:25.355Z,22.23
2022-08-11T00:06:53.387Z,4.40
2022-08-11T00:09:31.551Z,1.98
2022-08-11T00:11:59.549Z,4.75
2022-08-11T00:14:36.963Z,6.75
2022-08-11T00:17:15.887Z,6.65
2022-08-11T00:20:11.883Z,3.28
2022-08-11T00:22:35.091Z,2.58
2022-08-11T00:25:19.161Z,3.00
2022-08-11T00:27:47.672Z,4.72
2022-08-11T00:30:15.694Z,7.50
2022-08-11T00:32:44.974Z,4.82
2022-08-11T00:35:51.814Z,7.40
2022-08-11T00:38:08.184Z,5.97
2022-08-11T00:40:45.383Z,2.67
2022-08-11T00:43:33.472Z,4.22
2022-08-11T00:46:16.239Z,4.20
2022-08-11T00:48:59.757Z,3.47
2022-08-11T00:55:09.136Z,6.63
2022-08-11T00:58:11.568Z,6.72
2022-08-11T01:01:09.551Z,9.05
2022-08-11T01:04:14.086Z,3.50
2022-08-11T01:06:52.930Z,6.40
2022-08-11T01:09:31.768Z,5.45
2022-08-11T01:12:36.384Z,5.95
2022-08-11T01:15:35.503Z,2.88
2022-08-11T01:18:28.378Z,3.45
2022-08-11T01:21:17.356Z,2.83
2022-08-11T01:24:05.757Z,5.72
2022-08-11T01:26:41.374Z,4.15
2022-08-11T01:29:33.598Z,3.42
2022-08-11T01:32:21.935Z,5.68
2022-08-11T01:35:30.044Z,6.68
2022-08-11T01:38:23.309Z,5.78
2022-08-11T01:41:08.227Z,2.50
2022-08-11T01:43:59.706Z,4.30
2022-08-11T01:46:39.569Z,3.75
2022-08-11T01:50:09.302Z,2.58
2022-08-11T01:52:45.455Z,2.65
2022-08-11T01:55:29.437Z,5.00
2022-08-11T01:58:14.549Z,3.80
2022-08-11T02:01:16.305Z,3.85
2022-08-11T02:03:58.869Z,4.60
2022-08-11T02:07:10.211Z,4.30
2022-08-11T02:09:58.653Z,5.50
2022-08-11T02:12:52.466Z,5.38
2022-08-11T02:15:36.378Z,4.55
2022-08-11T02:18:47.104Z,7.18
2022-08-11T02:21:42.809Z,2.33
2022-08-11T02:24:20.339Z,6.68
2022-08-11T02:26:53.526Z,6.78
2022-08-11T02:29:32.405Z,4.85
2022-08-11T02:32:49.958Z,5.80
2022-08-11T02:35:49.672Z,9.10
2022-08-11T02:38:30.002Z,4.63
2022-08-11T02:41:31.692Z,4.90
2022-08-11T02:44:29.302Z,4.50
2022-08-11T02:47:16.926Z,3.75
2022-08-11T02:50:19.255Z,5.57
2022-08-11T02:53:02.192Z,5.65
2022-08-11T02:55:47.973Z,8.38
2022-08-11T02:58:36.925Z,4.07
2022-08-11T03:01:28.666Z,4.53
2022-08-11T03:04:05.718Z,5.43
2022-08-11T03:06:38.751Z,5.15
2022-08-11T03:09:17.584Z,3.92
2022-08-11T03:12:02.824Z,4.43
2022-08-11T03:14:54.658Z,6.93
2022-08-11T03:17:21.331Z,4.80
2022-08-11T03:20:15.279Z,5.18
2022-08-11T03:23:19.742Z,6.05
2022-08-11T03:26:06.741Z,7.07
2022-08-11T03:28:57.236Z,6.00
2022-08-11T03:31:29.803Z,4.18
2022-08-11T03:34:29.189Z,6.03
2022-08-11T03:37:39.599Z,7.25
2022-08-11T03:40:38.443Z,9.05
2022-08-11T03:43:50.099Z,5.80
2022-08-11T03:47:02.895Z,7.80
2022-08-11T03:52:28.569Z,6.22
2022-08-11T03:55:28.780Z,9.10
2022-08-11T03:58:17.449Z,6.82
2022-08-11T04:01:18.267Z,5.28
2022-08-11T04:03:47.102Z,4.85
2022-08-11T04:06:45.809Z,6.60
2022-08-11T04:09:46.366Z,6.10
2022-08-11T04:12:47.184Z,5.28
2022-08-11T04:16:12.422Z,6.95
2022-08-11T04:19:11.159Z,5.40
2022-08-11T04:21:56.226Z,5.97
2022-08-11T04:24:59.237Z,5.22
2022-08-11T04:27:51.091Z,5.97
2022-08-11T04:30:31.632Z,5.95
2022-08-11T04:32:59.768Z,10.02
2022-08-11T04:35:51.291Z,5.10
2022-08-11T04:38:58.837Z,6.20
2022-08-11T04:42:21.737Z,5.72
2022-08-11T04:44:57.990Z,6.18
2022-08-11T04:48:08.420Z,4.55
2022-08-11T04:51:20.993Z,6.82
2022-08-11T04:54:34.259Z,7.00
2022-08-11T04:57:36.327Z,6.75
2022-08-11T05:00:31.358Z,5.97
2022-08-11T05:03:14.361Z,5.57
2022-08-11T05:06:29.809Z,10.37
2022-08-11T05:09:29.499Z,7.32
2022-08-11T05:12:13.476Z,6.13
2022-08-11T05:15:47.147Z,7.75
2022-08-11T05:18:40.348Z,5.47
2022-08-11T05:21:29.193Z,6.15
2022-08-11T05:24:31.954Z,5.05
2022-08-11T05:27:21.415Z,7.68
2022-08-11T05:30:28.416Z,5.78
2022-08-11T05:33:27.989Z,10.05
2022-08-11T05:36:39.635Z,6.60
2022-08-11T05:39:36.439Z,11.25
2022-08-11T05:42:39.194Z,9.95
2022-08-11T05:46:03.072Z,11.35
2022-08-11T05:48:39.035Z,7.13
2022-08-11T05:51:30.224Z,9.88
2022-08-11T05:54:28.388Z,7.70
2022-08-11T05:57:00.099Z,6.80
2022-08-11T05:59:30.511Z,7.32
2022-08-11T06:02:05.986Z,8.88
2022-08-11T06:04:34.428Z,8.10
2022-08-11T06:07:09.642Z,10.50
2022-08-11T06:09:38.956Z,7.60
2022-08-11T06:12:18.122Z,6.18
2022-08-11T06:14:46.209Z,5.72
2022-08-11T06:17:17.078Z,7.95
2022-08-11T06:19:47.970Z,6.05
2022-08-11T06:22:21.447Z,9.48
2022-08-11T06:24:59.923Z,9.55
2022-08-11T06:27:29.789Z,10.60
2022-08-11T06:29:58.364Z,30.70
2022-08-11T06:32:35.413Z,8.63
2022-08-11T06:35:10.097Z,6.88
2022-08-11T06:37:58.797Z,5.70
2022-08-11T06:40:30.092Z,5.85
2022-08-11T06:43:23.042Z,14.07
2022-08-11T06:46:07.154Z,8.00
2022-08-11T06:48:35.334Z,7.53
2022-08-11T06:51:14.586Z,8.05
2022-08-11T06:54:03.733Z,7.70
2022-08-11T06:57:26.331Z,8.07
2022-08-11T07:00:03.764Z,8.38
2022-08-11T07:02:34.459Z,7.35
2022-08-11T07:05:08.203Z,10.13
2022-08-11T07:08:34.823Z,8.98
2022-08-11T07:11:48.754Z,10.13
2022-08-11T07:14:41.737Z,7.25
2022-08-11T07:17:16.052Z,6.45
2022-08-11T07:20:06.520Z,5.95
2022-08-11T07:22:54.510Z,7.07
2022-08-11T07:25:43.353Z,9.48
2022-08-11T07:28:32.836Z,5.53
2022-08-11T07:31:09.727Z,11.07
2022-08-11T07:34:08.138Z,9.05
2022-08-11T07:36:45.992Z,31.13
2022-08-11T07:39:21.339Z,6.50
2022-08-11T07:41:50.490Z,7.80
2022-08-11T07:44:18.003Z,6.10
2022-08-11T07:47:07.920Z,9.18
2022-08-11T07:49:56.243Z,7.53
2022-08-11T07:52:30.918Z,6.35
2022-08-11T07:55:05.056Z,7.18
2022-08-11T07:58:14.509Z,9.82
2022-08-11T08:01:09.858Z,9.70
2022-08-11T08:04:08.953Z,57.35
2022-08-11T08:06:56.344Z,15.32
2022-08-11T08:09:43.191Z,19.00
2022-08-11T08:12:29.166Z,10.25
2022-08-11T08:15:16.141Z,27.08
2022-08-11T08:18:09.669Z,7.28
2022-08-11T08:20:46.256Z,14.73
2022-08-11T08:23:13.890Z,17.92
2022-08-11T08:25:43.215Z,12.55
2022-08-11T08:28:14.129Z,8.40
2022-08-11T08:30:48.320Z,16.48
2022-08-11T08:33:19.645Z,6.10
2022-08-11T08:35:54.408Z,6.43
2022-08-11T08:38:23.690Z,64.93
2022-08-11T08:40:56.227Z,41.08
2022-08-11T08:43:24.773Z,81.00
2022-08-11T08:45:56.062Z,93.25
2022-08-11T08:48:25.934Z,71.53
2022-08-11T08:51:16.706Z,110.30
2022-08-11T08:53:53.208Z,48.60
2022-08-11T08:56:34.417Z,77.32
2022-08-11T08:59:05.459Z,566.97
2022-08-11T09:01:39.060Z,38.08
2022-08-11T09:04:12.291Z,40.60
2022-08-11T09:06:44.571Z,13.07
2022-08-11T09:09:17.722Z,398.45
2022-08-11T09:11:53.170Z,14.18
2022-08-11T09:14:50.956Z,126.93
2022-08-11T09:17:25.208Z,6.30
2022-08-11T09:20:01.557Z,20.80
2022-08-11T09:23:19.294Z,8.50
2022-08-11T09:25:56.682Z,9.57
2022-08-11T09:28:24.943Z,30.25
2022-08-11T09:30:53.633Z,63.28
2022-08-11T09:33:21.685Z,106.45
2022-08-11T09:35:52.792Z,37.80
2022-08-11T09:38:47.373Z,34.13
2022-08-11T09:41:20.603Z,13.35
2022-08-11T09:44:11.991Z,46.23
2022-08-11T09:46:39.691Z,8.50
2022-08-11T09:49:06.759Z,10.15
2022-08-11T09:51:34.436Z,51.97
2022-08-11T09:54:06.542Z,35.88
2022-08-11T09:56:53.053Z,131.60
2022-08-11T09:59:22.441Z,9.63
2022-08-11T10:01:59.366Z,6.28
2022-08-11T10:04:45.945Z,61.42
2022-08-11T10:07:19.385Z,833.22
2022-08-11T10:09:56.443Z,8.93
2022-08-11T10:12:26.920Z,16.17
2022-08-11T10:15:20.887Z,7.13
2022-08-11T10:18:10.922Z,85.35
2022-08-11T10:20:39.109Z,19.77
2022-08-11T10:23:29.075Z,13.95
2022-08-11T10:26:16.151Z,169.38
2022-08-11T10:29:09.645Z,21.48
2022-08-11T10:31:57.857Z,351.85
2022-08-11T10:34:29.270Z,335.35
2022-08-11T10:36:58.305Z,736.10
2022-08-11T10:39:27.143Z,21.88
2022-08-11T10:42:30.073Z,116.03
2022-08-11T10:45:25.391Z,56.95
2022-08-11T10:47:57.078Z,82.80
2022-08-11T10:50:43.445Z,189.27
2022-08-11T10:53:32.741Z,119.53
2022-08-11T10:56:20.548Z,1999.90
2022-08-11T10:58:51.015Z,436.05
2022-08-11T11:01:22.587Z,453.70
2022-08-11T11:03:59.472Z,115.90
2022-08-11T11:06:44.796Z,238.05
2022-08-11T11:09:11.958Z,150.93
2022-08-11T11:12:20.354Z,460.15
2022-08-11T11:15:16.132Z,435.40
2022-08-11T11:18:01.891Z,213.13
2022-08-11T11:20:36.545Z,358.63
2022-08-11T11:23:16.861Z,1224.82
2022-08-11T11:26:27.721Z,756.83
2022-08-11T11:29:16.185Z,514.63
2022-08-11T11:32:10.844Z,430.70
2022-08-11T11:34:58.286Z,263.77
2022-08-11T11:37:25.914Z,795.90
2022-08-11T11:39:57.791Z,307.75
2022-08-11T11:42:27.110Z,909.58
2022-08-11T11:45:00.435Z,1166.03
2022-08-11T11:47:31.846Z,714.15
2022-08-11T11:50:00.028Z,937.08
2022-08-11T11:52:29.562Z,1826.20
2022-08-11T11:55:03.200Z,632.67
2022-08-11T11:57:59.285Z,556.55
2022-08-11T12:00:45.849Z,518.13
2022-08-11T12:03:13.677Z,1643.63
2022-08-11T12:05:47.631Z,1046.18
2022-08-11T12:08:18.203Z,1999.90
2022-08-11T12:11:15.806Z,1351.18
2022-08-11T12:13:47.182Z,1356.43
2022-08-11T12:16:32.825Z,1814.22
2022-08-11T12:19:06.610Z,1424.10
2022-08-11T12:21:35.241Z,1255.45
2022-08-11T12:24:21.675Z,1833.07
2022-08-11T12:27:16.201Z,1809.38
2022-08-11T12:29:55.485Z,928.85
2022-08-11T12:32:25.903Z,927.95
2022-08-11T12:34:53.730Z,828.30
2022-08-11T12:37:24.497Z,1999.90
2022-08-11T12:40:50.019Z,1487.13
2022-08-11T12:43:37.152Z,1302.45
2022-08-11T12:46:09.007Z,1460.13
2022-08-11T12:49:02.479Z,1145.38
2022-08-11T12:52:00.978Z,1530.30
2022-08-11T12:55:02.324Z,1849.78
2022-08-11T12:57:55.877Z,1609.75
2022-08-11T13:00:42.259Z,1999.90
2022-08-11T13:03:29.873Z,1999.90
2022-08-11T13:05:58.914Z,1999.90
2022-08-11T13:08:34.182Z,1999.90
2022-08-11T13:11:21.062Z,1828.25
2022-08-11T13:13:53.994Z,1999.88
2022-08-11T13:16:29.239Z,1999.90
2022-08-11T13:18:59.084Z,1999.90
2022-08-11T13:21:27.581Z,1999.90
2022-08-11T13:24:00.609Z,1999.90
2022-08-11T13:26:47.529Z,1999.90
2022-08-11T13:29:22.585Z,1999.90
2022-08-11T13:31:50.309Z,1999.90
2022-08-11T13:34:18.273Z,1999.90
2022-08-11T13:36:49.788Z,1984.45
2022-08-11T13:39:17.436Z,1999.90
2022-08-11T13:41:47.686Z,1999.90
2022-08-11T13:44:21.584Z,1999.90
2022-08-11T13:46:52.900Z,1999.90
2022-08-11T13:49:21.809Z,1999.90
2022-08-11T13:51:49.560Z,1999.90
2022-08-11T13:54:19.616Z,1999.90
2022-08-11T13:56:50.149Z,1999.90
2022-08-11T13:59:24.074Z,1999.90
2022-08-11T14:02:20.808Z,1999.90
2022-08-11T14:05:11.790Z,1999.90
2022-08-11T14:07:40.959Z,1999.90
2022-08-11T14:10:12.116Z,1999.90
2022-08-11T14:13:01.720Z,1999.90
2022-08-11T14:15:34.413Z,1999.90
2022-08-11T14:20:54.130Z,1999.90
2022-08-11T14:23:28.831Z,1999.90
2022-08-11T14:26:16.154Z,1999.90
2022-08-11T14:28:45.091Z,1999.90
2022-08-11T14:31:15.809Z,1999.90
2022-08-11T14:34:00.820Z,1975.93
2022-08-11T14:36:36.203Z,1999.90
2022-08-11T14:39:08.323Z,1999.90
2022-08-11T14:42:10.219Z,1999.90
2022-08-11T14:45:00.302Z,1999.90
2022-08-11T14:47:32.708Z,1999.90
2022-08-11T14:50:11.848Z,1999.90
2022-08-11T14:53:09.766Z,1999.90
2022-08-11T14:55:58.108Z,1999.90
2022-08-11T14:58:28.279Z,1999.90
2022-08-11T15:00:58.274Z,1999.90
2022-08-11T15:03:28.301Z,1999.90
2022-08-11T15:05:58.505Z,1999.90
2022-08-11T15:08:47.835Z,1999.90
2022-08-11T15:11:35.826Z,1999.90
2022-08-11T15:14:07.603Z,1999.90
2022-08-11T15:16:55.867Z,1999.90
2022-08-11T15:19:25.327Z,1999.90
2022-08-11T15:22:13.765Z,1999.90
2022-08-11T15:24:40.939Z,1999.90
2022-08-11T15:27:40.409Z,1999.90
2022-08-11T15:30:33.045Z,1999.90
2022-08-11T15:33:23.275Z,1999.90
2022-08-11T15:36:11.540Z,1999.90
2022-08-11T15:38:56.882Z,1999.90
2022-08-11T15:42:05.917Z,1913.03
2022-08-11T15:45:03.064Z,1999.90
2022-08-11T15:47:41.618Z,1999.90
2022-08-11T15:50:14.810Z,1999.90
2022-08-11T15:52:56.273Z,1999.90
2022-08-11T15:55:24.904Z,1999.90
2022-08-11T15:58:13.692Z,1999.90
2022-08-11T16:01:04.324Z,1999.90
2022-08-11T16:04:07.106Z,1999.90
2022-08-11T16:06:47.757Z,1999.90
2022-08-11T16:09:54.022Z,1999.90
2022-08-11T16:12:35.415Z,1999.90
2022-08-11T16:15:25.891Z,1999.90
2022-08-11T16:17:57.824Z,1999.90
2022-08-11T16:20:27.693Z,1999.90
2022-08-11T16:23:02.208Z,1999.90
2022-08-11T16:27:02.606Z,1999.90
2022-08-11T16:28:22.011Z,1999.90
2022-08-11T16:30:49.810Z,1999.90
2022-08-11T16:33:50.762Z,1999.90
2022-08-11T16:36:25.023Z,1999.90
2022-08-11T16:38:54.082Z,1999.90
2022-08-11T16:41:42.093Z,1999.90
2022-08-11T16:44:32.748Z,1999.90
2022-08-11T16:47:10.424Z,1999.90
2022-08-11T16:49:42.962Z,1999.90
2022-08-11T16:52:14.519Z,1962.43
2022-08-11T16:54:44.591Z,1999.90
2022-08-11T16:57:52.780Z,1999.90
2022-08-11T17:00:19.641Z,1912.82
2022-08-11T17:03:09.323Z,1773.60
2022-08-11T17:05:56.722Z,1787.35
2022-08-11T17:08:56.990Z,1793.00
2022-08-11T17:11:47.933Z,1359.00
2022-08-11T17:14:35.438Z,1588.45
2022-08-11T17:17:07.274Z,1999.90
2022-08-11T17:20:41.623Z,1333.70
2022-08-11T17:22:47.241Z,1354.28
2022-08-11T17:25:19.628Z,1224.35
2022-08-11T17:27:48.094Z,997.60
2022-08-11T17:30:15.795Z,1355.05
2022-08-11T17:33:08.421Z,1402.05
2022-08-11T17:35:39.153Z,1635.38
2022-08-11T17:38:15.712Z,1988.90
2022-08-11T17:41:04.781Z,1999.90
2022-08-11T17:43:50.922Z,1999.90
2022-08-11T17:46:37.217Z,1999.90
2022-08-11T17:49:09.452Z,1999.90
2022-08-11T17:51:57.324Z,1999.90
2022-08-11T17:54:44.702Z,1999.90
2022-08-11T17:57:32.991Z,1999.90
2022-08-11T18:00:01.061Z,1999.90
2022-08-11T18:02:53.745Z,1999.90
2022-08-11T18:05:25.718Z,1999.90
2022-08-11T18:08:14.808Z,1999.90
2022-08-11T18:11:01.205Z,1999.90
2022-08-11T18:13:50.843Z,1999.90
2022-08-11T18:16:37.320Z,1999.90
2022-08-11T18:19:24.583Z,1999.90
2022-08-11T18:22:14.976Z,1999.90
2022-08-11T18:25:10.353Z,1899.82
2022-08-11T18:27:59.418Z,1588.30
2022-08-11T18:30:51.349Z,1276.85
2022-08-11T18:34:06.805Z,1103.13
2022-08-11T18:37:22.829Z,852.75
2022-08-11T18:40:29.863Z,530.75
2022-08-11T18:43:20.349Z,326.88
2022-08-11T18:46:10.870Z,176.93
2022-08-11T18:49:11.846Z,118.18
2022-08-11T18:52:03.563Z,113.80
2022-08-11T18:54:53.220Z,87.30
2022-08-11T18:57:53.743Z,83.82
2022-08-11T19:00:42.388Z,45.85
2022-08-11T19:03:30.828Z,26.17
2022-08-11T19:06:38.345Z,37.40
2022-08-11T19:09:28.433Z,37.08
2022-08-11T19:12:15.359Z,40.13
2022-08-11T19:15:03.332Z,24.83
2022-08-11T19:17:51.085Z,38.97
2022-08-11T19:20:39.436Z,12.52
2022-08-11T19:23:27.371Z,13.35
2022-08-11T19:26:13.298Z,29.77
2022-08-11T19:29:02.626Z,14.05
2022-08-11T19:31:48.878Z,23.27
2022-08-11T19:34:36.788Z,18.38
2022-08-11T19:37:25.776Z,10.82
2022-08-11T19:40:27.327Z,23.00
2022-08-11T19:43:25.881Z,6.72
2022-08-11T19:46:15.078Z,7.10
2022-08-11T19:49:02.362Z,5.88
2022-08-11T19:51:53.796Z,9.18
2022-08-11T19:54:44.340Z,4.95
2022-08-11T19:57:35.754Z,7.07
2022-08-11T20:00:32.155Z,8.18
2022-08-11T20:06:04.713Z,15.40
2022-08-11T20:08:55.028Z,7.57
2022-08-11T20:11:44.560Z,4.82
2022-08-11T20:14:31.869Z,7.65
2022-08-11T20:17:19.281Z,6.30
2022-08-11T20:20:08.052Z,5.85
2022-08-11T20:22:53.411Z,10.82
2022-08-11T20:25:42.949Z,3.80
2022-08-11T20:28:31.840Z,13.15
2022-08-11T20:31:17.076Z,6.72
2022-08-11T20:34:04.019Z,7.63
2022-08-11T20:36:54.924Z,8.38
2022-08-11T20:39:43.273Z,8.25
2022-08-11T20:42:30.951Z,4.43
2022-08-11T20:45:23.932Z,7.80
2022-08-11T20:48:14.879Z,6.47
2022-08-11T20:51:06.354Z,6.22
2022-08-11T20:53:56.352Z,11.18
2022-08-11T20:56:44.176Z,5.63
2022-08-11T20:59:49.276Z,15.68
2022-08-11T21:02:41.162Z,5.82
2022-08-11T21:06:05.500Z,4.25
2022-08-11T21:08:37.908Z,14.88
2022-08-11T21:11:28.556Z,5.20
2022-08-11T21:14:14.879Z,4.20
2022-08-11T21:17:27.128Z,9.52
2022-08-11T21:20:15.542Z,11.98
2022-08-11T21:23:20.014Z,6.85
2022-08-11T21:26:15.336Z,6.47
2022-08-11T21:29:01.544Z,5.53
2022-08-11T21:31:50.455Z,5.55
2022-08-11T21:34:38.647Z,5.13
2022-08-11T21:37:26.443Z,8.68
2022-08-11T21:40:17.019Z,7.30
2022-08-11T21:43:05.604Z,5.38
2022-08-11T21:45:54.023Z,5.25
2022-08-11T21:48:41.501Z,5.22
2022-08-11T21:51:26.885Z,14.88
2022-08-11T21:54:13.311Z,5.18
2022-08-11T21:56:59.023Z,6.28
2022-08-11T22:00:03.369Z,23.13
2022-08-11T22:02:57.230Z,4.53
2022-08-11T22:05:44.561Z,8.10
2022-08-11T22:08:31.581Z,9.07
2022-08-11T22:11:32.492Z,7.78
2022-08-11T22:14:22.523Z,8.02
2022-08-11T22:17:08.871Z,6.78
2022-08-11T22:20:00.464Z,4.15
2022-08-11T22:22:52.912Z,10.15
2022-08-11T22:25:46.559Z,6.90
2022-08-11T22:28:39.825Z,3.80
2022-08-11T22:31:27.213Z,8.32
2022-08-11T22:34:12.377Z,5.60
2022-08-11T22:37:00.277Z,4.88
2022-08-11T22:39:59.666Z,3.92
2022-08-11T22:42:49.647Z,5.03
2022-08-11T22:45:35.060Z,6.72
2022-08-11T22:48:26.544Z,5.03
2022-08-11T22:51:13.478Z,3.92
2022-08-11T22:54:00.266Z,5.05
2022-08-11T22:56:47.989Z,3.42
2022-08-11T22:59:34.905Z,7.05
2022-08-11T23:02:21.829Z,6.00
2022-08-11T23:05:11.152Z,5.50
2022-08-11T23:07:58.112Z,5.70
2022-08-11T23:10:44.965Z,4.43
2022-08-11T23:13:31.838Z,4.05
2022-08-11T23:16:17.921Z,3.65
2022-08-11T23:19:04.552Z,3.78
2022-08-11T23:21:50.719Z,8.98
2022-08-11T23:24:36.955Z,5.55
2022-08-11T23:27:24.808Z,4.38
2022-08-11T23:30:13.653Z,5.03
2022-08-11T23:33:05.490Z,11.18
2022-08-11T23:35:56.764Z,3.15
2022-08-11T23:38:43.724Z,7.63
2022-08-11T23:41:31.997Z,3.88
2022-08-11T23:44:20.377Z,7.70
2022-08-11T23:47:08.237Z,5.63
2022-08-11T23:49:58.392Z,10.20
2022-08-11T23:52:46.021Z,8.35
2022-08-11T23:55:31.272Z,4.88
2022-08-11T23:58:17.207Z,4.35
